Alyeska Resort
Max's Hourly Weather Roundup
ALYESKA_MAX 4/24/2014
Click Here for Graph

        DATE  TIME   Air  Wind  Wind  Wind  BATT   Rel
                    Temp   Spd   Dir  Gust  Volt  Hum%
                      F   MPH   AVG   MPH   AVG   AVG

   4/24/2014 04:00    27     2   255     4 12.85   100
   4/24/2014 03:00    28     4           6 12.87    98
   4/24/2014 02:00    28     3   284     5 12.89    97
   4/24/2014 01:00    28     1   163     4 12.92    98
   4/23/2014 24:00    29     1   170     3 12.96    94
   4/23/2014 23:00    29     2    84     4 13.04    91
   4/23/2014 22:00    30     5    64    10 13.20    92
   4/23/2014 21:00    34     2    65     6 13.88    87
   4/23/2014 20:00    32     3   137     6 13.86    95
   4/23/2014 19:00    32     5   294    10 13.84    93
   4/23/2014 18:00    35     4   134    11 13.78    80
   4/23/2014 17:00    34     5    66    11 13.80    84
   4/23/2014 16:00    36     3   106    10 13.76    83
   4/23/2014 15:00    34     3   120     9 13.77    88
   4/23/2014 14:00    34     2   133     8 13.78    91
   4/23/2014 13:00    33     5   169    10 13.77    92
   4/23/2014 12:00    33     2   175     9 13.76    87
   4/23/2014 11:00    31     2   205     4 13.69    90
   4/23/2014 10:00    30     2   176     4 13.68    94
   4/23/2014 09:00    30     4   170     5 13.62    95
   4/23/2014 08:00    32     2   168     6 13.60    89
   4/23/2014 07:00    29     2   217     4 12.83    95
   4/23/2014 06:00    29     1   180     3 12.83    96
   4/23/2014 05:00    30     1   192     3 12.85    92


Click Here for Graph